Time;durP1;ratioP1;P1;durP2;ratioP2;P2;SDS_P1;SDS_P2;PMS_P1;PMS_P2;Temp;Humidity;BMP_temperature;BMP_pressure;BME280_temperature;BME280_humidity;BME280_pressure;Samples;Min_cycle;Max_cycle;Signal;HPM_P1;HPM_P2
2021/08/18 00:00:07;;;;;;;41.88;18.10;;;15.20;99.90;;;;;;5052628;28;20028;-74
2021/08/18 00:02:32;;;;;;;33.80;17.17;;;15.20;99.90;;;;;;5052041;28;20115;-74
2021/08/18 00:04:58;;;;;;;39.10;17.77;;;15.20;99.90;;;;;;5051856;28;20144;-75
2021/08/18 00:07:24;;;;;;;33.85;17.35;;;15.20;99.90;;;;;;5052277;28;20490;-74
2021/08/18 00:09:50;;;;;;;31.58;16.75;;;15.20;99.90;;;;;;5052343;28;20021;-74
2021/08/18 00:12:16;;;;;;;35.13;16.95;;;15.20;99.90;;;;;;5053466;28;20104;-73
2021/08/18 00:14:42;;;;;;;36.08;16.08;;;15.10;99.90;;;;;;5056718;28;20025;-73
2021/08/18 00:17:07;;;;;;;38.88;17.95;;;15.20;99.90;;;;;;5052934;28;20083;-74
2021/08/18 00:19:33;;;;;;;33.58;15.52;;;15.30;99.90;;;;;;5083000;22;20041;-73
2021/08/18 00:21:59;;;;;;;30.90;16.08;;;15.20;99.90;;;;;;5035454;28;20034;-73
2021/08/18 00:24:24;;;;;;;26.70;14.80;;;15.20;99.90;;;;;;5037493;28;20052;-73
2021/08/18 00:26:50;;;;;;;29.58;15.45;;;15.00;99.90;;;;;;5050586;28;20094;-73
2021/08/18 00:29:15;;;;;;;31.23;16.25;;;15.10;99.90;;;;;;5049971;28;20025;-73
2021/08/18 00:31:41;;;;;;;32.10;15.00;;;15.20;99.90;;;;;;5051908;28;20078;-73
2021/08/18 00:34:07;;;;;;;31.10;16.20;;;15.10;99.90;;;;;;5051906;28;20037;-73
2021/08/18 00:36:32;;;;;;;31.48;15.02;;;15.10;99.90;;;;;;5050878;28;20087;-73
2021/08/18 00:38:58;;;;;;;25.98;14.65;;;15.10;99.90;;;;;;5051913;28;20422;-73
2021/08/18 00:41:24;;;;;;;29.25;15.50;;;15.10;99.90;;;;;;5051546;28;20037;-73
2021/08/18 00:43:51;;;;;;;27.10;14.85;;;15.10;99.90;;;;;;5051712;28;20069;-72
2021/08/18 00:46:17;;;;;;;30.98;15.77;;;15.10;99.90;;;;;;5051021;28;20032;-72
2021/08/18 00:48:46;;;;;;;26.00;14.40;;;15.10;99.90;;;;;;5051578;28;20017;-73
2021/08/18 00:51:15;;;;;;;29.17;15.18;;;15.20;99.90;;;;;;5050778;28;20030;-72
2021/08/18 00:53:41;;;;;;;30.20;15.57;;;15.20;99.90;;;;;;5051294;28;20364;-72
2021/08/18 00:56:08;;;;;;;33.60;17.67;;;15.20;99.90;;;;;;5050535;28;20107;-72
2021/08/18 00:58:34;;;;;;;31.13;16.58;;;15.30;99.90;;;;;;5051346;28;20390;-72
2021/08/18 01:00:59;;;;;;;29.55;15.93;;;15.10;99.90;;;;;;5051307;28;20033;-72
2021/08/18 01:03:25;;;;;;;30.52;15.30;;;15.20;99.90;;;;;;5051292;28;20029;-73
2021/08/18 01:05:51;;;;;;;38.03;17.67;;;15.30;99.90;;;;;;5049352;28;20075;-72
2021/08/18 01:08:16;;;;;;;28.58;15.68;;;15.20;99.90;;;;;;5051202;28;20017;-73
2021/08/18 01:10:42;;;;;;;34.08;15.88;;;15.20;99.90;;;;;;5051263;28;20038;-73
2021/08/18 01:13:08;;;;;;;38.13;16.40;;;15.10;99.90;;;;;;5051084;28;20064;-72
2021/08/18 01:15:35;;;;;;;28.45;16.23;;;15.00;99.90;;;;;;5050060;28;20103;-72
2021/08/18 01:18:03;;;;;;;25.58;15.10;;;15.10;99.90;;;;;;5049752;28;20090;-73
2021/08/18 01:20:35;;;;;;;26.55;15.32;;;14.90;99.90;;;;;;5051028;28;20040;-72
2021/08/18 01:23:07;;;;;;;25.50;14.73;;;14.90;99.90;;;;;;5051434;28;20021;-72
2021/08/18 01:25:33;;;;;;;24.63;13.82;;;14.80;99.90;;;;;;5050737;28;20025;-73
2021/08/18 01:28:01;;;;;;;29.38;14.52;;;14.80;99.90;;;;;;5050938;28;20021;-72
2021/08/18 01:30:28;;;;;;;33.15;16.48;;;14.90;99.90;;;;;;5050477;28;20498;-73
2021/08/18 01:33:00;;;;;;;32.50;17.02;;;15.00;99.90;;;;;;5050624;28;20414;-73
2021/08/18 01:35:31;;;;;;;33.55;16.75;;;15.00;99.90;;;;;;5051779;28;20017;-72
2021/08/18 01:37:59;;;;;;;28.45;15.52;;;15.00;99.90;;;;;;5051802;28;20109;-73
2021/08/18 01:40:24;;;;;;;29.02;16.48;;;15.00;99.90;;;;;;5052390;28;20028;-74
2021/08/18 01:42:51;;;;;;;33.20;17.05;;;14.90;99.90;;;;;;5051484;28;20021;-74
2021/08/18 01:45:22;;;;;;;33.08;16.73;;;15.00;99.90;;;;;;5051295;28;20063;-72
2021/08/18 01:47:49;;;;;;;33.73;18.10;;;15.00;99.90;;;;;;5052166;28;20025;-71
2021/08/18 01:50:15;;;;;;;30.10;16.55;;;15.00;99.90;;;;;;5051716;28;20115;-74
2021/08/18 01:52:41;;;;;;;31.67;17.17;;;14.90;99.90;;;;;;5051758;28;20116;-73
2021/08/18 01:55:07;;;;;;;37.00;19.15;;;14.90;99.90;;;;;;5051426;28;20490;-72
2021/08/18 01:57:33;;;;;;;35.33;16.85;;;15.00;99.90;;;;;;5052522;28;20462;-72
2021/08/18 01:59:59;;;;;;;34.03;17.95;;;14.90;99.90;;;;;;5050927;28;20031;-72
2021/08/18 02:02:29;;;;;;;34.25;18.42;;;14.90;99.90;;;;;;5051000;28;20063;-72
2021/08/18 02:04:56;;;;;;;33.20;18.27;;;14.90;99.90;;;;;;5053006;28;20044;-71
2021/08/18 02:07:22;;;;;;;37.03;19.23;;;14.90;99.90;;;;;;5053526;28;20031;-73
2021/08/18 02:09:47;;;;;;;35.10;18.40;;;14.90;99.90;;;;;;5054454;28;20100;-73
2021/08/18 02:12:13;;;;;;;28.30;17.25;;;15.00;99.90;;;;;;5052888;28;20021;-73
2021/08/18 02:14:39;;;;;;;33.67;18.23;;;14.80;99.90;;;;;;5053866;28;20375;-72
2021/08/18 02:17:05;;;;;;;35.15;18.63;;;14.80;99.90;;;;;;5054410;28;20437;-74
2021/08/18 02:19:31;;;;;;;33.00;18.42;;;14.80;99.90;;;;;;5053782;28;20124;-73
2021/08/18 02:21:56;;;;;;;33.78;18.90;;;14.80;99.90;;;;;;5053150;28;20060;-73
2021/08/18 02:24:22;;;;;;;32.50;18.95;;;14.90;99.90;;;;;;5052443;28;20070;-73
2021/08/18 02:26:48;;;;;;;30.75;18.85;;;14.80;99.90;;;;;;5052489;28;20125;-73
2021/08/18 02:29:13;;;;;;;33.65;18.80;;;14.80;99.90;;;;;;5052619;28;20068;-72
2021/08/18 02:31:39;;;;;;;45.05;23.05;;;14.90;99.90;;;;;;5052901;28;20167;-73
2021/08/18 02:34:08;;;;;;;32.17;18.40;;;15.00;99.90;;;;;;5052773;28;20029;-72
2021/08/18 02:36:34;;;;;;;38.22;20.92;;;14.90;99.90;;;;;;5051851;28;20086;-72
2021/08/18 02:39:00;;;;;;;39.38;21.08;;;14.80;99.90;;;;;;5052621;28;20029;-72
2021/08/18 02:41:27;;;;;;;43.10;20.90;;;14.80;99.90;;;;;;5052223;28;20029;-72
2021/08/18 02:43:52;;;;;;;35.20;19.95;;;14.90;99.90;;;;;;5052640;28;20021;-73
2021/08/18 02:46:18;;;;;;;38.90;21.65;;;14.80;99.90;;;;;;5051941;28;20547;-72
2021/08/18 02:48:44;;;;;;;40.22;21.00;;;14.80;99.90;;;;;;5052434;28;20096;-72
2021/08/18 02:51:09;;;;;;;36.55;20.15;;;14.80;99.90;;;;;;5052429;28;20029;-73
2021/08/18 02:53:35;;;;;;;38.53;20.58;;;14.80;99.90;;;;;;5052547;28;20490;-73
2021/08/18 02:56:01;;;;;;;44.88;22.02;;;14.80;99.90;;;;;;5051562;28;20025;-73
2021/08/18 02:58:26;;;;;;;38.67;20.92;;;14.80;99.90;;;;;;5052204;28;20071;-72
2021/08/18 03:00:52;;;;;;;44.63;22.15;;;14.90;99.90;;;;;;5052224;28;20025;-73
2021/08/18 03:03:18;;;;;;;42.05;20.85;;;14.80;99.90;;;;;;5052108;28;20031;-72
2021/08/18 03:05:43;;;;;;;37.83;20.48;;;14.80;99.90;;;;;;5051604;28;20027;-72
2021/08/18 03:08:09;;;;;;;42.53;21.00;;;14.90;99.90;;;;;;5052206;28;20021;-73
2021/08/18 03:10:35;;;;;;;41.72;21.27;;;14.90;99.90;;;;;;5052039;28;20036;-73
2021/08/18 03:13:00;;;;;;;46.50;21.50;;;14.80;99.90;;;;;;5051973;28;20017;-73
2021/08/18 03:15:26;;;;;;;40.15;20.00;;;14.70;99.90;;;;;;5049145;28;20044;-72
2021/08/18 03:17:52;;;;;;;40.00;20.67;;;14.70;99.90;;;;;;5050868;28;20423;-72
2021/08/18 03:20:18;;;;;;;40.25;20.38;;;14.80;99.90;;;;;;5012944;28;1114894;-73
2021/08/18 03:22:44;;;;;;;42.53;20.88;;;14.80;99.90;;;;;;5052648;28;20025;-72
2021/08/18 03:25:10;;;;;;;37.67;20.15;;;14.70;99.90;;;;;;5052068;28;20070;-72
2021/08/18 03:27:36;;;;;;;39.88;20.63;;;14.70;99.90;;;;;;5052643;28;20025;-72
2021/08/18 03:30:04;;;;;;;37.92;20.95;;;14.70;99.90;;;;;;5052897;28;20032;-73
2021/08/18 03:32:29;;;;;;;37.92;19.55;;;14.70;99.90;;;;;;5052857;28;20036;-72
2021/08/18 03:34:55;;;;;;;35.72;19.65;;;14.70;99.90;;;;;;5052009;28;20021;-72
2021/08/18 03:37:21;;;;;;;31.42;18.33;;;14.70;99.90;;;;;;5052754;28;20035;-72
2021/08/18 03:39:46;;;;;;;35.72;18.35;;;14.60;99.90;;;;;;5052343;28;20048;-72
2021/08/18 03:42:12;;;;;;;31.52;19.27;;;14.70;99.90;;;;;;5052209;28;20029;-73
2021/08/18 03:44:38;;;;;;;28.95;16.17;;;14.40;99.90;;;;;;5051068;28;20040;-72
2021/08/18 03:47:03;;;;;;;30.10;19.17;;;14.70;99.90;;;;;;5052527;28;20021;-72
2021/08/18 03:49:29;;;;;;;31.77;18.13;;;14.70;99.90;;;;;;5052345;28;20025;-72
2021/08/18 03:51:55;;;;;;;32.10;17.70;;;14.70;99.90;;;;;;5052438;28;20402;-72
2021/08/18 03:54:20;;;;;;;34.58;17.80;;;14.70;99.90;;;;;;5051786;28;20031;-72
2021/08/18 03:56:46;;;;;;;31.20;18.58;;;14.60;99.90;;;;;;5052045;28;20029;-72
2021/08/18 03:59:12;;;;;;;32.53;18.30;;;14.70;99.90;;;;;;5052200;28;20056;-72
2021/08/18 04:01:38;;;;;;;36.67;18.30;;;14.80;99.90;;;;;;5051935;28;20025;-72
2021/08/18 04:04:03;;;;;;;35.55;18.35;;;14.80;99.90;;;;;;5052211;28;20021;-72
2021/08/18 04:06:29;;;;;;;31.38;18.75;;;14.80;99.90;;;;;;5051633;28;20017;-73
2021/08/18 04:08:56;;;;;;;33.15;18.98;;;14.80;99.90;;;;;;5052090;28;20098;-72
2021/08/18 04:11:22;;;;;;;36.90;19.65;;;14.90;99.90;;;;;;5051889;28;20052;-72
2021/08/18 04:13:48;;;;;;;36.22;19.30;;;14.80;99.90;;;;;;5051942;28;20483;-73
2021/08/18 04:16:13;;;;;;;32.33;18.85;;;14.80;99.90;;;;;;5051250;28;20393;-73
2021/08/18 04:18:39;;;;;;;36.45;18.35;;;14.70;99.90;;;;;;5052077;28;20029;-72
2021/08/18 04:21:05;;;;;;;34.70;19.27;;;14.70;99.90;;;;;;5051802;28;20033;-73
2021/08/18 04:23:30;;;;;;;35.33;19.15;;;14.70;99.90;;;;;;5051948;28;20035;-73
2021/08/18 04:25:56;;;;;;;29.05;17.52;;;14.70;99.90;;;;;;5050963;28;20021;-73
2021/08/18 04:28:22;;;;;;;34.45;18.85;;;14.70;99.90;;;;;;5039335;28;20037;-73
2021/08/18 04:30:48;;;;;;;34.42;20.55;;;14.80;99.90;;;;;;5031569;28;20033;-73
2021/08/18 04:33:13;;;;;;;31.60;19.35;;;14.90;99.90;;;;;;5031937;28;20032;-73
2021/08/18 04:35:39;;;;;;;32.35;18.60;;;14.90;99.90;;;;;;5034620;28;20407;-72
2021/08/18 04:38:05;;;;;;;39.33;19.30;;;14.90;99.90;;;;;;5031658;28;20391;-73
2021/08/18 04:40:30;;;;;;;35.45;19.98;;;15.00;99.90;;;;;;5030938;28;20083;-71
2021/08/18 04:42:56;;;;;;;34.92;19.35;;;15.00;99.90;;;;;;5031444;28;20106;-72
2021/08/18 04:45:22;;;;;;;33.53;18.38;;;15.00;99.90;;;;;;5030769;28;20087;-72
2021/08/18 04:47:47;;;;;;;31.35;18.35;;;14.90;99.90;;;;;;5045470;28;20025;-72
2021/08/18 04:50:14;;;;;;;31.85;17.67;;;14.80;99.90;;;;;;5067274;28;20009;-73
2021/08/18 04:52:41;;;;;;;32.15;17.10;;;14.90;99.90;;;;;;5063143;28;20050;-72
2021/08/18 04:55:07;;;;;;;36.25;19.17;;;14.90;99.90;;;;;;5033483;28;20089;-72
2021/08/18 04:57:33;;;;;;;41.40;18.40;;;14.90;99.90;;;;;;5032418;28;20030;-71
2021/08/18 04:59:59;;;;;;;31.25;17.77;;;15.00;99.90;;;;;;5030887;28;20014;-72
2021/08/18 05:02:25;;;;;;;29.95;17.73;;;14.90;99.90;;;;;;5013134;28;20108;-72
2021/08/18 05:04:50;;;;;;;27.83;16.48;;;15.00;99.90;;;;;;5011322;28;20061;-72
2021/08/18 05:07:16;;;;;;;30.58;17.35;;;15.00;99.90;;;;;;5010098;28;20026;-73
2021/08/18 05:09:42;;;;;;;28.50;17.17;;;15.00;99.90;;;;;;5010934;28;20026;-70
2021/08/18 05:12:08;;;;;;;30.50;18.00;;;15.10;99.90;;;;;;5011203;28;20446;-69
2021/08/18 05:14:33;;;;;;;30.35;18.08;;;15.10;99.90;;;;;;5010536;28;20030;-68
2021/08/18 05:16:59;;;;;;;30.95;18.55;;;15.20;99.90;;;;;;5026860;28;20399;-68
2021/08/18 05:19:24;;;;;;;32.80;18.60;;;15.20;99.90;;;;;;5050316;28;20041;-69
2021/08/18 05:21:50;;;;;;;30.27;17.17;;;15.30;99.90;;;;;;5041204;28;20036;-69
2021/08/18 05:24:16;;;;;;;31.45;17.23;;;15.30;99.90;;;;;;5015665;28;20101;-69
2021/08/18 05:26:41;;;;;;;32.10;17.02;;;15.30;99.90;;;;;;5010647;28;20451;-70
2021/08/18 05:29:07;;;;;;;27.90;16.42;;;15.30;99.90;;;;;;5010970;28;20034;-71
2021/08/18 05:31:33;;;;;;;33.80;18.45;;;15.20;99.90;;;;;;5012537;28;20028;-71
2021/08/18 05:33:58;;;;;;;30.55;17.65;;;15.20;99.90;;;;;;5030929;28;20476;-70
2021/08/18 05:36:24;;;;;;;27.88;16.45;;;15.40;99.90;;;;;;5029848;28;20105;-70
2021/08/18 05:38:50;;;;;;;35.72;17.42;;;15.20;99.90;;;;;;5048545;28;20021;-70
2021/08/18 05:41:15;;;;;;;31.35;15.85;;;15.20;99.90;;;;;;5054166;28;20060;-70
2021/08/18 05:43:44;;;;;;;28.08;16.02;;;15.20;99.90;;;;;;5054802;28;20411;-70
2021/08/18 05:46:09;;;;;;;30.38;17.08;;;15.10;99.90;;;;;;5052748;28;20025;-71
2021/08/18 05:48:35;;;;;;;26.13;16.33;;;15.30;99.90;;;;;;5054296;28;20390;-70
2021/08/18 05:51:01;;;;;;;28.67;16.27;;;15.30;99.90;;;;;;5053789;28;20029;-71
2021/08/18 05:53:27;;;;;;;26.33;15.75;;;15.40;99.90;;;;;;5054510;28;20033;-71
2021/08/18 05:55:52;;;;;;;27.60;16.42;;;15.30;99.90;;;;;;5053739;28;20554;-71
2021/08/18 05:58:18;;;;;;;29.63;15.63;;;15.40;99.90;;;;;;5016482;28;20089;-71
2021/08/18 06:00:44;;;;;;;24.50;15.68;;;15.40;99.90;;;;;;5030858;28;20025;-71
2021/08/18 06:03:11;;;;;;;26.65;15.90;;;15.40;99.90;;;;;;5014421;28;20030;-72
2021/08/18 06:05:36;;;;;;;25.33;16.15;;;15.40;99.90;;;;;;5018290;28;20785;-72
2021/08/18 06:08:03;;;;;;;27.75;16.05;;;15.40;99.90;;;;;;5014867;28;20113;-71
2021/08/18 06:10:29;;;;;;;25.48;16.05;;;15.40;99.90;;;;;;5014282;28;20499;-70
2021/08/18 06:12:55;;;;;;;32.47;16.80;;;15.60;99.90;;;;;;5014107;28;20033;-72
2021/08/18 06:15:20;;;;;;;32.65;15.68;;;15.70;99.90;;;;;;5013330;28;20026;-71
2021/08/18 06:17:47;;;;;;;23.20;15.05;;;15.40;99.90;;;;;;5035802;28;20569;-71
2021/08/18 06:20:13;;;;;;;26.73;16.08;;;15.50;99.90;;;;;;5075461;22;20052;-72
2021/08/18 06:22:39;;;;;;;24.55;15.85;;;15.60;99.90;;;;;;5033569;28;20031;-72
2021/08/18 06:25:06;;;;;;;35.08;17.55;;;15.60;99.90;;;;;;5033187;28;20030;-72
2021/08/18 06:27:32;;;;;;;26.80;15.75;;;15.70;99.90;;;;;;5033949;28;20104;-72
2021/08/18 06:29:58;;;;;;;26.73;15.27;;;15.70;99.90;;;;;;5033765;28;20064;-72
2021/08/18 06:32:23;;;;;;;26.27;15.15;;;15.50;99.90;;;;;;5033902;28;20022;-71
2021/08/18 06:34:53;;;;;;;23.00;15.55;;;15.40;99.90;;;;;;5033240;28;20064;-72
2021/08/18 06:37:19;;;;;;;24.10;15.25;;;15.60;99.90;;;;;;5034060;28;20029;-72
2021/08/18 06:39:45;;;;;;;23.83;14.88;;;15.60;99.90;;;;;;5043547;28;20021;-72
2021/08/18 06:42:11;;;;;;;22.48;14.82;;;15.70;99.90;;;;;;5053895;28;20083;-72
2021/08/18 06:44:36;;;;;;;22.80;13.27;;;15.70;99.90;;;;;;5052855;28;20024;-72
2021/08/18 06:47:03;;;;;;;22.13;15.30;;;15.90;99.90;;;;;;5053782;28;20399;-72
2021/08/18 06:49:29;;;;;;;21.63;14.32;;;15.80;99.90;;;;;;5051679;28;20654;-72
2021/08/18 06:51:54;;;;;;;25.65;15.07;;;16.00;99.90;;;;;;5053143;28;20078;-72
2021/08/18 06:54:20;;;;;;;24.45;13.63;;;16.30;99.90;;;;;;5042415;28;20480;-73
2021/08/18 06:56:45;;;;;;;23.23;13.45;;;16.60;99.90;;;;;;5033263;28;20087;-72
2021/08/18 06:59:11;;;;;;;22.27;14.05;;;16.40;99.90;;;;;;5033365;28;20140;-72
2021/08/18 07:01:37;;;;;;;18.85;12.52;;;16.50;99.90;;;;;;5015040;28;20056;-72
2021/08/18 07:04:05;;;;;;;19.58;12.52;;;16.50;99.90;;;;;;5032694;28;20021;-73
2021/08/18 07:06:31;;;;;;;19.00;13.25;;;16.50;99.90;;;;;;5033552;28;20018;-72
2021/08/18 07:08:56;;;;;;;18.88;13.20;;;16.60;99.90;;;;;;5037455;28;20116;-72
2021/08/18 07:11:22;;;;;;;20.15;12.20;;;16.40;99.90;;;;;;5036174;28;20029;-72
2021/08/18 07:13:47;;;;;;;20.65;11.75;;;16.50;99.90;;;;;;5033340;28;20030;-72
2021/08/18 07:16:13;;;;;;;19.90;12.18;;;16.60;99.90;;;;;;5031920;28;20021;-72
2021/08/18 07:18:40;;;;;;;17.23;11.60;;;16.60;99.90;;;;;;5032811;28;20040;-72
2021/08/18 07:21:06;;;;;;;21.33;12.35;;;16.80;99.90;;;;;;5014208;28;20037;-72
2021/08/18 07:23:32;;;;;;;19.45;12.38;;;16.60;99.90;;;;;;5032951;28;20028;-72
2021/08/18 07:25:58;;;;;;;18.75;11.50;;;16.50;99.90;;;;;;5031928;28;20024;-72
2021/08/18 07:28:23;;;;;;;20.60;11.75;;;16.60;99.90;;;;;;5033052;28;20427;-72
2021/08/18 07:30:49;;;;;;;19.27;11.45;;;16.90;99.90;;;;;;5032505;28;20503;-72
2021/08/18 07:33:14;;;;;;;18.23;11.52;;;17.20;99.90;;;;;;5032309;28;20104;-72
2021/08/18 07:35:40;;;;;;;17.48;10.52;;;17.40;99.90;;;;;;5031661;28;20061;-72
2021/08/18 07:38:06;;;;;;;14.80;10.00;;;17.40;99.90;;;;;;5032284;28;20053;-72
2021/08/18 07:40:31;;;;;;;15.35;10.23;;;17.30;99.90;;;;;;5049220;28;20095;-72
2021/08/18 07:42:59;;;;;;;15.27;9.98;;;17.40;99.90;;;;;;5052288;28;20040;-72
2021/08/18 07:45:25;;;;;;;13.80;10.32;;;17.10;99.90;;;;;;5051599;28;20021;-71
2021/08/18 07:47:51;;;;;;;17.55;10.35;;;17.60;99.90;;;;;;5052369;28;20433;-72
2021/08/18 07:50:17;;;;;;;16.38;9.82;;;17.50;99.90;;;;;;5052336;28;20166;-72
2021/08/18 07:52:42;;;;;;;15.77;9.98;;;17.60;99.90;;;;;;5034083;28;20086;-72
2021/08/18 07:55:08;;;;;;;15.40;8.82;;;17.50;99.90;;;;;;5034368;28;20105;-71
2021/08/18 07:57:34;;;;;;;13.15;8.65;;;17.40;99.90;;;;;;5032294;28;20096;-71
2021/08/18 08:00:05;;;;;;;14.52;8.90;;;17.30;99.90;;;;;;5031684;28;20029;-71
2021/08/18 08:02:31;;;;;;;12.10;8.40;;;17.60;99.90;;;;;;5032224;28;20021;-71
2021/08/18 08:04:57;;;;;;;12.63;8.02;;;17.80;99.90;;;;;;5024444;28;20395;-74
2021/08/18 08:07:23;;;;;;;12.68;7.85;;;17.80;99.90;;;;;;5051713;28;20029;-70
2021/08/18 08:09:48;;;;;;;14.15;8.30;;;17.70;99.90;;;;;;5051796;28;20033;-72
2021/08/18 08:12:14;;;;;;;14.20;6.32;;;17.40;99.90;;;;;;5052139;28;20037;-70
2021/08/18 08:14:39;;;;;;;9.73;7.10;;;17.40;99.90;;;;;;5050809;28;20033;-71
2021/08/18 08:17:05;;;;;;;13.40;6.10;;;17.50;99.90;;;;;;5051965;28;20100;-71
2021/08/18 08:19:31;;;;;;;9.40;5.97;;;17.50;99.90;;;;;;5050434;28;20445;-70
2021/08/18 08:21:57;;;;;;;10.48;6.97;;;17.50;99.90;;;;;;5051546;28;20037;-72
2021/08/18 08:24:23;;;;;;;10.30;6.38;;;17.40;99.90;;;;;;5051347;28;20052;-71
2021/08/18 08:26:48;;;;;;;11.38;5.80;;;17.50;99.90;;;;;;5051502;28;20579;-71
2021/08/18 08:29:14;;;;;;;10.20;5.85;;;17.70;99.90;;;;;;5051515;28;20112;-71
2021/08/18 08:31:42;;;;;;;9.00;6.15;;;17.80;99.90;;;;;;5051800;28;20037;-72
2021/08/18 08:34:09;;;;;;;7.47;5.20;;;18.40;99.90;;;;;;5051447;28;20053;-71
2021/08/18 08:36:34;;;;;;;7.28;4.60;;;18.90;99.90;;;;;;5050932;28;20032;-72
2021/08/18 08:39:00;;;;;;;5.85;4.85;;;18.70;99.90;;;;;;5051441;28;20024;-71
2021/08/18 08:41:26;;;;;;;6.47;4.10;;;18.90;99.90;;;;;;5050964;28;20466;-71
2021/08/18 08:43:53;;;;;;;4.85;4.22;;;18.20;99.90;;;;;;5051245;28;20055;-71
2021/08/18 08:46:19;;;;;;;6.38;4.40;;;18.30;99.90;;;;;;5049153;28;20115;-72
2021/08/18 08:48:44;;;;;;;4.75;4.28;;;18.40;99.90;;;;;;5033059;28;20506;-72
2021/08/18 08:51:10;;;;;;;5.07;3.53;;;18.50;99.90;;;;;;5051278;28;20036;-72
2021/08/18 08:53:37;;;;;;;7.07;4.07;;;18.70;99.90;;;;;;5046835;28;20476;-72
2021/08/18 08:56:03;;;;;;;4.93;3.75;;;18.60;99.90;;;;;;5030799;28;20075;-71
2021/08/18 08:58:29;;;;;;;4.80;3.90;;;18.70;99.90;;;;;;5031196;28;20056;-71
2021/08/18 09:00:54;;;;;;;3.55;3.17;;;18.70;99.90;;;;;;5046500;28;20025;-71
2021/08/18 09:03:24;;;;;;;4.93;4.00;;;18.90;99.90;;;;;;5050922;28;20491;-71
2021/08/18 09:05:52;;;;;;;4.05;3.53;;;18.80;99.90;;;;;;5050172;28;20096;-73
2021/08/18 09:08:22;;;;;;;7.15;3.92;;;18.20;99.90;;;;;;5051057;28;20478;-71
2021/08/18 09:11:09;;;;;;;5.63;3.55;;;17.90;99.90;;;;;;5033066;28;20100;-71
2021/08/18 09:13:51;;;;;;;5.05;3.70;;;17.90;99.90;;;;;;5052616;28;20075;-71
2021/08/18 09:16:29;;;;;;;3.85;3.10;;;18.50;99.90;;;;;;5054563;28;20053;-72
2021/08/18 09:18:55;;;;;;;3.47;3.17;;;19.10;99.90;;;;;;5055005;28;20498;-71
2021/08/18 09:21:41;;;;;;;3.70;3.10;;;19.80;99.90;;;;;;5054422;28;20037;-71
2021/08/18 09:24:16;;;;;;;3.65;3.35;;;19.80;99.90;;;;;;5055134;28;20024;-70
2021/08/18 09:27:08;;;;;;;5.43;2.60;;;20.10;99.90;;;;;;5054603;28;20069;-72
2021/08/18 09:29:37;;;;;;;2.60;2.38;;;20.20;99.90;;;;;;5054685;28;20017;-71
2021/08/18 09:32:20;;;;;;;2.88;2.33;;;20.40;99.90;;;;;;5036756;28;20174;-70
2021/08/18 09:34:58;;;;;;;2.20;2.00;;;19.50;99.90;;;;;;5036186;28;20021;-71
2021/08/18 09:37:25;;;;;;;2.50;2.30;;;19.00;99.90;;;;;;5054929;28;20483;-71
2021/08/18 09:39:51;;;;;;;2.47;2.28;;;19.10;99.90;;;;;;5054325;28;20123;-71
2021/08/18 09:42:29;;;;;;;2.38;2.22;;;19.30;99.90;;;;;;5054739;28;20051;-71
2021/08/18 09:45:17;;;;;;;2.75;2.38;;;19.90;99.90;;;;;;5054171;28;20017;-71
2021/08/18 09:48:04;;;;;;;2.65;1.95;;;20.80;99.90;;;;;;5054108;28;20103;-68
2021/08/18 09:50:39;;;;;;;3.95;2.10;;;21.20;99.90;;;;;;5054477;28;20021;-71
2021/08/18 09:53:08;;;;;;;2.05;1.80;;;21.30;99.90;;;;;;5054390;28;20017;-71
2021/08/18 09:55:34;;;;;;;2.08;1.90;;;20.30;99.90;;;;;;5033759;28;20067;-71
2021/08/18 09:57:59;;;;;;;2.90;1.73;;;20.80;99.90;;;;;;5034789;28;20033;-70
2021/08/18 10:00:25;;;;;;;1.63;1.52;;;21.50;99.90;;;;;;5046099;28;20541;-71
2021/08/18 10:02:52;;;;;;;2.05;1.73;;;21.10;99.90;;;;;;5055342;28;20634;-71
2021/08/18 10:05:18;;;;;;;1.65;1.48;;;21.40;99.90;;;;;;5054159;28;20100;-71
2021/08/18 10:07:44;;;;;;;1.42;1.33;;;20.90;99.90;;;;;;5054048;28;20025;-70
2021/08/18 10:10:10;;;;;;;1.20;1.10;;;21.80;99.90;;;;;;5053974;28;20092;-70
2021/08/18 10:12:36;;;;;;;0.90;0.90;;;22.60;99.90;;;;;;5054127;28;20067;-70
2021/08/18 10:15:05;;;;;;;1.27;1.00;;;22.70;99.90;;;;;;5053332;28;20056;-70
2021/08/18 10:17:38;;;;;;;1.27;1.27;;;22.30;99.90;;;;;;5053953;28;20021;-71
2021/08/18 10:20:07;;;;;;;1.35;1.05;;;21.20;99.90;;;;;;5053917;28;20478;-71
2021/08/18 10:22:33;;;;;;;1.60;1.50;;;21.30;99.90;;;;;;5044566;28;20135;-70
2021/08/18 10:25:45;;;;;;;1.55;1.45;;;21.50;99.90;;;;;;5031698;28;20071;-69
2021/08/18 10:28:11;;;;;;;1.75;1.65;;;21.50;99.90;;;;;;5033662;28;20021;-71
2021/08/18 10:30:50;;;;;;;1.52;1.40;;;21.00;99.90;;;;;;5034346;28;20031;-71
2021/08/18 10:33:53;;;;;;;1.80;1.70;;;21.40;99.90;;;;;;5033846;28;20014;-70
2021/08/18 10:36:40;;;;;;;3.05;1.38;;;20.80;99.90;;;;;;5012287;28;20045;-72
2021/08/18 10:39:18;;;;;;;2.05;1.73;;;20.60;99.90;;;;;;5013934;28;20045;-70
2021/08/18 10:42:10;;;;;;;1.50;1.40;;;20.10;99.90;;;;;;5013867;28;20018;-72
2021/08/18 10:44:37;;;;;;;1.75;1.65;;;19.80;99.90;;;;;;5012023;28;20026;-71
2021/08/18 10:47:18;;;;;;;1.50;1.38;;;19.80;99.90;;;;;;5021139;28;20375;-71
2021/08/18 10:49:45;;;;;;;5.15;1.67;;;20.20;99.90;;;;;;5053390;28;20021;-71
2021/08/18 10:52:11;;;;;;;1.52;1.27;;;20.30;99.90;;;;;;5053206;28;20040;-70
2021/08/18 10:54:42;;;;;;;1.75;1.58;;;20.90;99.90;;;;;;5039508;28;20036;-72
2021/08/18 10:57:37;;;;;;;1.58;1.48;;;20.70;99.90;;;;;;5033169;28;20029;-71
2021/08/18 11:00:15;;;;;;;1.23;1.13;;;21.00;99.90;;;;;;5033283;28;20068;-72
2021/08/18 11:03:04;;;;;;;1.55;1.02;;;21.40;99.90;;;;;;5033030;28;20029;-71
2021/08/18 11:05:38;;;;;;;1.58;1.30;;;21.10;99.90;;;;;;5048189;28;20025;-71
2021/08/18 11:08:14;;;;;;;1.15;1.10;;;21.30;99.90;;;;;;5052871;28;20433;-71
2021/08/18 11:11:05;;;;;;;1.20;1.10;;;21.30;99.90;;;;;;5053088;28;20036;-72
2021/08/18 11:13:40;;;;;;;0.98;0.90;;;21.50;99.90;;;;;;5052994;28;20394;-72
2021/08/18 11:16:11;;;;;;;1.20;1.10;;;21.10;99.90;;;;;;5052203;28;20108;-71
2021/08/18 11:18:44;;;;;;;1.42;1.33;;;20.80;99.90;;;;;;5052829;28;20063;-72
2021/08/18 11:21:15;;;;;;;3.28;1.10;;;21.10;99.90;;;;;;5050423;28;20036;-71
2021/08/18 11:23:49;;;;;;;1.27;1.17;;;20.60;99.90;;;;;;5031875;28;20093;-72
2021/08/18 11:26:27;;;;;;;0.75;0.75;;;20.80;99.90;;;;;;5031926;28;20064;-71
2021/08/18 11:28:58;;;;;;;2.00;1.10;;;21.00;99.90;;;;;;5032910;28;20116;-72
2021/08/18 11:31:39;;;;;;;0.98;0.95;;;21.20;99.90;;;;;;5032687;28;20032;-71
2021/08/18 11:34:17;;;;;;;2.58;0.90;;;21.60;99.90;;;;;;5036921;28;20029;-71
2021/08/18 11:36:44;;;;;;;3.53;0.85;;;22.20;99.90;;;;;;5051622;28;20394;-71
2021/08/18 11:39:11;;;;;;;2.67;0.88;;;21.00;99.90;;;;;;5052198;28;20448;-72
2021/08/18 11:41:42;;;;;;;1.55;1.20;;;21.40;99.90;;;;;;5052498;28;20472;-72
2021/08/18 11:44:09;;;;;;;1.20;1.10;;;23.20;99.90;;;;;;5052365;28;20166;-71
2021/08/18 11:46:35;;;;;;;1.17;1.08;;;23.20;99.90;;;;;;5051621;28;20025;-72
2021/08/18 11:49:09;;;;;;;1.33;1.05;;;23.40;99.90;;;;;;5034075;28;20021;-72
2021/08/18 11:51:36;;;;;;;1.15;0.70;;;24.80;99.90;;;;;;5052147;28;20565;-71
2021/08/18 11:54:02;;;;;;;0.80;0.80;;;24.50;99.90;;;;;;5026373;28;20108;-72
2021/08/18 11:56:29;;;;;;;1.00;0.75;;;24.30;99.90;;;;;;5031661;28;20089;-71
2021/08/18 11:59:00;;;;;;;0.88;0.88;;;23.40;99.90;;;;;;5032073;28;20026;-71
2021/08/18 12:01:26;;;;;;;1.67;1.58;;;23.90;99.90;;;;;;5032069;28;20491;-72
2021/08/18 12:03:53;;;;;;;0.77;0.70;;;25.10;99.90;;;;;;5025255;28;20732;-73
2021/08/18 12:06:37;;;;;;;0.60;0.60;;;25.80;99.90;;;;;;5028455;28;20018;-73
2021/08/18 12:09:19;;;;;;;0.73;0.70;;;26.20;99.90;;;;;;5031914;28;20076;-71
2021/08/18 12:11:44;;;;;;;1.05;0.63;;;25.30;99.10;;;;;;5031733;28;20057;-72
2021/08/18 12:14:15;;;;;;;2.80;0.80;;;24.60;99.90;;;;;;5031447;28;20069;-73
2021/08/18 12:16:42;;;;;;;1.20;1.10;;;24.50;99.90;;;;;;5031484;28;20025;-73
2021/08/18 12:19:14;;;;;;;1.45;0.82;;;23.70;99.90;;;;;;5031469;28;20514;-73
2021/08/18 12:21:40;;;;;;;0.90;0.88;;;24.00;99.90;;;;;;5013933;28;20037;-72
2021/08/18 12:24:13;;;;;;;2.03;1.23;;;24.10;99.90;;;;;;5064167;22;20044;-72
2021/08/18 12:26:47;;;;;;;2.58;1.00;;;24.20;99.90;;;;;;5021020;28;20030;-72
2021/08/18 12:29:18;;;;;;;1.20;1.10;;;24.60;99.90;;;;;;5011816;28;20458;-72
2021/08/18 12:32:09;;;;;;;2.38;0.82;;;25.50;99.90;;;;;;5012030;28;20026;-72
2021/08/18 12:34:57;;;;;;;1.10;0.98;;;25.80;99.90;;;;;;5026642;28;20044;-72
2021/08/18 12:37:25;;;;;;;2.33;0.98;;;25.20;99.90;;;;;;5051025;28;20029;-72